Time;durP1;ratioP1;P1;durP2;ratioP2;P2;SDS_P1;SDS_P2;PMS_P1;PMS_P2;Temp;Humidity;BMP_temperature;BMP_pressure;BME280_temperature;BME280_humidity;BME280_pressure;Samples;Min_cycle;Max_cycle;Signal;HPM_P1;HPM_P2
2023/09/04 00:00:10;;;;;;;3.70;2.70;;;16.60;99.90;;;;;;4976426;28;20190;-30
2023/09/04 00:02:39;;;;;;;4.43;2.60;;;16.50;99.90;;;;;;4992813;28;20180;-29
2023/09/04 00:05:05;;;;;;;3.10;2.78;;;16.40;99.90;;;;;;4992713;28;20222;-29
2023/09/04 00:07:31;;;;;;;4.47;2.78;;;16.30;99.90;;;;;;4976699;28;20183;-29
2023/09/04 00:09:57;;;;;;;3.45;2.35;;;16.40;99.90;;;;;;4973217;28;20187;-29
2023/09/04 00:12:23;;;;;;;4.63;2.72;;;16.40;99.90;;;;;;4986626;28;20234;-29
2023/09/04 00:14:48;;;;;;;4.93;2.40;;;16.40;99.90;;;;;;4975593;28;20197;-29
2023/09/04 00:17:14;;;;;;;4.28;2.78;;;16.40;99.90;;;;;;4995925;28;20187;-29
2023/09/04 00:19:40;;;;;;;3.17;2.40;;;16.30;99.90;;;;;;4980020;28;20190;-29
2023/09/04 00:22:06;;;;;;;4.65;2.67;;;16.30;99.90;;;;;;4975219;28;20212;-30
2023/09/04 00:24:32;;;;;;;2.95;2.38;;;16.40;99.90;;;;;;4992725;28;20199;-29
2023/09/04 00:26:57;;;;;;;4.72;2.95;;;16.40;99.90;;;;;;4991729;28;20220;-29
2023/09/04 00:29:23;;;;;;;5.10;2.60;;;16.40;99.90;;;;;;4992840;28;20190;-29
2023/09/04 00:31:49;;;;;;;4.45;2.78;;;16.40;99.90;;;;;;4992912;28;20196;-29
2023/09/04 00:34:15;;;;;;;3.58;2.85;;;16.40;99.90;;;;;;4974524;28;20273;-29
2023/09/04 00:36:41;;;;;;;4.00;2.50;;;16.40;99.90;;;;;;4979416;28;20230;-29
2023/09/04 00:39:06;;;;;;;2.95;2.53;;;16.50;99.90;;;;;;4979580;28;20218;-29
2023/09/04 00:41:32;;;;;;;3.88;2.38;;;16.50;99.90;;;;;;4975603;28;20184;-29
2023/09/04 00:43:58;;;;;;;3.45;2.55;;;16.40;99.90;;;;;;4979542;28;20250;-30
2023/09/04 00:46:25;;;;;;;3.55;2.45;;;16.40;99.90;;;;;;4979614;28;20227;-30
2023/09/04 00:48:51;;;;;;;2.45;2.25;;;16.30;99.90;;;;;;4995516;28;20217;-29
2023/09/04 00:51:18;;;;;;;2.60;2.30;;;16.40;99.90;;;;;;4968120;28;20176;-29
2023/09/04 00:53:44;;;;;;;7.13;3.15;;;16.30;99.90;;;;;;4994126;28;20271;-29
2023/09/04 00:56:13;;;;;;;2.72;2.53;;;16.20;99.90;;;;;;4974955;28;20208;-29
2023/09/04 00:58:39;;;;;;;3.10;2.40;;;16.20;99.90;;;;;;4992408;28;20176;-29
2023/09/04 01:01:05;;;;;;;4.43;2.65;;;16.10;99.90;;;;;;4979320;28;20183;-29
2023/09/04 01:03:31;;;;;;;3.63;2.97;;;16.10;99.90;;;;;;4975638;28;20187;-29
2023/09/04 01:05:59;;;;;;;3.22;2.90;;;16.10;99.90;;;;;;4989600;28;20287;-29
2023/09/04 01:08:25;;;;;;;4.47;3.38;;;16.00;99.90;;;;;;4991860;28;20274;-29
2023/09/04 01:11:16;;;;;;;4.90;3.43;;;15.90;99.90;;;;;;4991328;28;20219;-29
2023/09/04 01:13:53;;;;;;;4.87;3.20;;;16.00;99.90;;;;;;5006816;28;20298;-29
2023/09/04 01:16:22;;;;;;;3.63;3.00;;;16.00;99.90;;;;;;4970462;28;20211;-29
2023/09/04 01:18:48;;;;;;;5.57;3.30;;;16.00;99.90;;;;;;4968630;28;20184;-29
2023/09/04 01:21:14;;;;;;;3.30;2.90;;;16.00;99.90;;;;;;5010748;28;20187;-29
2023/09/04 01:23:40;;;;;;;4.43;3.10;;;16.00;99.90;;;;;;4995215;28;20262;-29
2023/09/04 01:26:30;;;;;;;4.20;3.22;;;16.00;99.90;;;;;;4973716;28;20750;-29
2023/09/04 01:29:19;;;;;;;3.60;3.20;;;16.00;99.90;;;;;;4978495;28;20187;-29
2023/09/04 01:31:54;;;;;;;4.30;3.03;;;16.00;99.90;;;;;;4974445;28;20173;-29
2023/09/04 01:34:28;;;;;;;3.22;2.92;;;15.90;99.90;;;;;;4970923;28;20261;-29
2023/09/04 01:36:57;;;;;;;3.58;3.13;;;15.90;99.90;;;;;;5009732;28;20223;-29
2023/09/04 01:39:27;;;;;;;3.42;2.90;;;15.90;99.90;;;;;;4989420;28;20234;-29
2023/09/04 01:41:53;;;;;;;3.67;2.93;;;15.90;99.90;;;;;;4990957;28;20184;-29
2023/09/04 01:44:19;;;;;;;3.50;2.88;;;15.90;99.90;;;;;;4992587;28;20250;-29
2023/09/04 01:46:45;;;;;;;4.43;2.90;;;15.80;99.90;;;;;;4991225;28;20230;-29
2023/09/04 01:49:11;;;;;;;3.97;3.10;;;15.70;99.90;;;;;;4991320;28;20184;-29
2023/09/04 01:51:37;;;;;;;3.60;3.30;;;15.70;99.90;;;;;;4994239;28;20214;-29
2023/09/04 01:54:02;;;;;;;3.97;3.07;;;15.70;99.90;;;;;;4977065;28;20218;-29
2023/09/04 01:56:28;;;;;;;3.50;3.20;;;15.60;99.90;;;;;;4969759;28;20708;-29
2023/09/04 01:58:54;;;;;;;4.63;2.90;;;15.50;99.90;;;;;;5024146;28;20194;-29
2023/09/04 02:01:20;;;;;;;3.87;3.30;;;15.50;99.90;;;;;;5002461;28;20229;-29
2023/09/04 02:03:56;;;;;;;3.60;3.13;;;15.50;99.90;;;;;;4974526;28;20184;-29
2023/09/04 02:06:23;;;;;;;4.77;2.93;;;15.50;99.90;;;;;;4984223;28;20196;-29
2023/09/04 02:08:51;;;;;;;4.20;3.10;;;15.50;99.90;;;;;;4990051;28;20188;-29
2023/09/04 02:11:17;;;;;;;4.17;2.90;;;15.60;99.90;;;;;;4988863;28;20184;-29
2023/09/04 02:13:45;;;;;;;3.27;2.97;;;15.60;99.90;;;;;;4990027;28;20199;-29
2023/09/04 02:16:12;;;;;;;3.60;3.20;;;15.60;99.90;;;;;;4987159;28;20207;-29
2023/09/04 02:18:38;;;;;;;4.43;3.03;;;15.60;99.90;;;;;;4971879;28;20175;-29
2023/09/04 02:21:05;;;;;;;3.87;3.00;;;15.50;99.90;;;;;;4978263;28;20249;-29
2023/09/04 02:23:31;;;;;;;5.17;2.80;;;15.50;99.90;;;;;;4974162;28;20179;-29
2023/09/04 02:25:57;;;;;;;3.67;2.47;;;15.40;99.90;;;;;;4989590;28;20215;-29
2023/09/04 02:28:24;;;;;;;5.70;3.17;;;15.40;99.90;;;;;;4977904;28;20198;-29
2023/09/04 02:30:51;;;;;;;3.30;2.87;;;15.30;99.90;;;;;;4977751;28;20302;-29
2023/09/04 02:33:17;;;;;;;2.90;2.57;;;15.30;99.90;;;;;;4990199;28;20229;-29
2023/09/04 02:35:43;;;;;;;3.87;2.80;;;15.20;99.90;;;;;;4993548;28;20290;-29
2023/09/04 02:38:09;;;;;;;5.87;2.93;;;15.20;99.90;;;;;;4977156;28;20191;-29
2023/09/04 02:40:34;;;;;;;3.03;2.73;;;15.10;99.90;;;;;;4984538;28;20341;-29
2023/09/04 02:43:00;;;;;;;5.27;3.00;;;15.00;99.90;;;;;;4966377;28;20186;-29
2023/09/04 02:45:26;;;;;;;4.47;3.10;;;15.10;99.90;;;;;;4977799;28;20692;-29
2023/09/04 02:47:52;;;;;;;4.40;3.13;;;15.00;99.90;;;;;;4977400;28;20183;-29
2023/09/04 02:50:18;;;;;;;5.33;3.07;;;15.00;99.90;;;;;;4973622;28;20327;-29
2023/09/04 02:52:44;;;;;;;3.53;3.07;;;15.00;99.90;;;;;;4990603;28;20187;-29
2023/09/04 02:55:10;;;;;;;3.17;2.87;;;15.00;99.90;;;;;;4989414;28;20217;-29
2023/09/04 02:57:36;;;;;;;4.57;2.73;;;15.10;99.90;;;;;;4962845;28;20183;-29
2023/09/04 03:00:06;;;;;;;7.23;3.00;;;15.10;99.90;;;;;;4993396;28;20321;-29
2023/09/04 03:02:36;;;;;;;3.83;2.50;;;15.10;99.90;;;;;;4993486;28;20187;-30
2023/09/04 03:05:02;;;;;;;4.97;3.13;;;15.10;99.90;;;;;;4989566;28;20316;-29
2023/09/04 03:07:28;;;;;;;3.73;2.97;;;15.10;99.90;;;;;;4961735;28;20261;-29
2023/09/04 03:09:58;;;;;;;3.37;2.90;;;15.00;99.90;;;;;;4989346;28;20247;-29
2023/09/04 03:12:26;;;;;;;4.27;2.80;;;15.00;99.90;;;;;;4977378;28;20233;-29
2023/09/04 03:15:00;;;;;;;3.13;2.60;;;15.00;99.90;;;;;;4977151;28;20257;-29
2023/09/04 03:17:29;;;;;;;5.10;2.77;;;14.90;99.90;;;;;;4972876;28;20219;-29
2023/09/04 03:19:57;;;;;;;3.73;2.90;;;14.80;99.90;;;;;;4973801;28;20191;-29
2023/09/04 03:22:24;;;;;;;5.07;2.97;;;14.80;99.90;;;;;;4973447;28;20204;-30
2023/09/04 03:24:50;;;;;;;3.67;3.37;;;14.80;99.90;;;;;;4989252;28;20204;-29
2023/09/04 03:27:16;;;;;;;3.80;2.90;;;14.70;99.90;;;;;;4971318;28;20192;-29
2023/09/04 03:29:43;;;;;;;3.50;3.00;;;14.80;99.90;;;;;;4973616;28;20176;-30
2023/09/04 03:32:09;;;;;;;4.00;3.30;;;14.80;99.90;;;;;;4965992;28;20196;-29
2023/09/04 03:34:36;;;;;;;3.13;2.70;;;14.80;99.90;;;;;;4970668;28;20259;-30
2023/09/04 03:37:04;;;;;;;3.80;3.00;;;14.80;99.90;;;;;;4989938;28;20180;-29
2023/09/04 03:39:35;;;;;;;3.20;2.90;;;14.80;99.90;;;;;;4987395;28;20210;-29
2023/09/04 03:42:01;;;;;;;6.00;3.23;;;14.80;99.90;;;;;;4987847;28;20192;-29
2023/09/04 03:44:27;;;;;;;3.40;3.10;;;14.80;99.90;;;;;;4993023;28;20199;-29
2023/09/04 03:46:53;;;;;;;4.77;3.40;;;14.80;99.90;;;;;;4976927;28;20206;-29
2023/09/04 03:49:18;;;;;;;3.20;2.77;;;14.90;99.90;;;;;;4969922;28;20277;-29
2023/09/04 03:51:44;;;;;;;4.70;3.27;;;14.90;99.90;;;;;;4974937;28;20727;-29
2023/09/04 03:54:10;;;;;;;3.17;2.87;;;14.90;99.90;;;;;;4996836;28;20262;-29
2023/09/04 03:56:36;;;;;;;4.13;3.10;;;14.90;99.90;;;;;;4992476;28;20203;-29
2023/09/04 03:59:02;;;;;;;7.60;3.03;;;14.80;99.90;;;;;;4991031;28;20207;-29
2023/09/04 04:01:31;;;;;;;7.10;2.80;;;14.80;99.90;;;;;;4980590;28;20179;-29
2023/09/04 04:03:59;;;;;;;3.63;2.70;;;14.80;99.90;;;;;;4991780;28;20662;-29
2023/09/04 04:06:25;;;;;;;4.13;2.90;;;14.70;99.90;;;;;;4991564;28;20204;-29
2023/09/04 04:08:54;;;;;;;3.90;3.30;;;14.70;99.90;;;;;;4992178;28;20211;-29
2023/09/04 04:11:20;;;;;;;4.90;2.87;;;14.50;99.90;;;;;;4991967;28;20259;-29
2023/09/04 04:13:49;;;;;;;3.77;3.40;;;14.50;99.90;;;;;;4993621;28;20234;-29
2023/09/04 04:16:15;;;;;;;3.77;3.03;;;14.40;99.90;;;;;;4991950;28;20200;-29
2023/09/04 04:18:41;;;;;;;6.80;3.30;;;14.40;99.90;;;;;;4979948;28;20226;-29
2023/09/04 04:21:07;;;;;;;4.07;2.80;;;14.30;99.90;;;;;;4980107;28;20241;-29
2023/09/04 04:23:34;;;;;;;3.07;2.77;;;14.20;99.90;;;;;;4993523;28;20207;-29
2023/09/04 04:26:01;;;;;;;4.90;3.03;;;14.20;99.90;;;;;;5000263;23;20216;-32
2023/09/04 04:28:27;;;;;;;4.13;3.13;;;14.20;99.90;;;;;;4988289;28;20179;-34
2023/09/04 04:30:53;;;;;;;2.97;2.60;;;14.20;99.90;;;;;;4996567;28;20175;-33
2023/09/04 04:33:19;;;;;;;3.53;2.80;;;14.20;99.90;;;;;;4996433;28;20179;-33
2023/09/04 04:35:45;;;;;;;4.50;3.17;;;14.20;99.90;;;;;;4995530;28;20176;-33
2023/09/04 04:38:10;;;;;;;3.60;3.13;;;14.20;99.90;;;;;;5013714;28;20289;-34
2023/09/04 04:40:40;;;;;;;4.73;4.00;;;14.20;99.90;;;;;;5016294;28;20274;-33
2023/09/04 04:43:06;;;;;;;5.00;4.30;;;14.20;99.90;;;;;;5023427;28;20175;-33
2023/09/04 04:45:33;;;;;;;7.77;4.40;;;14.30;99.90;;;;;;5004594;28;20238;-33
2023/09/04 04:48:01;;;;;;;4.27;3.87;;;14.20;99.90;;;;;;5012043;28;20203;-33
2023/09/04 04:50:28;;;;;;;10.63;4.60;;;14.30;99.90;;;;;;5007723;28;20225;-33
2023/09/04 04:52:55;;;;;;;8.07;4.50;;;14.30;99.90;;;;;;5015637;28;20175;-33
2023/09/04 04:55:22;;;;;;;10.43;5.33;;;14.30;99.90;;;;;;5002172;28;20180;-33
2023/09/04 04:57:48;;;;;;;11.17;5.17;;;14.40;99.90;;;;;;5006657;28;20282;-33
2023/09/04 05:00:15;;;;;;;9.50;4.00;;;14.50;99.90;;;;;;5022088;28;20183;-33
2023/09/04 05:02:41;;;;;;;16.77;4.50;;;14.50;99.90;;;;;;4999683;28;20202;-33
2023/09/04 05:05:08;;;;;;;5.00;4.00;;;14.50;99.90;;;;;;5031340;28;20206;-33
2023/09/04 05:07:34;;;;;;;11.03;3.80;;;14.60;99.90;;;;;;5011471;28;20206;-33
2023/09/04 05:10:00;;;;;;;18.37;3.63;;;14.60;99.90;;;;;;5002161;28;20187;-32
2023/09/04 05:12:26;;;;;;;12.23;4.07;;;14.60;99.90;;;;;;5014592;28;20227;-33
2023/09/04 05:14:52;;;;;;;8.50;3.60;;;14.70;99.90;;;;;;5000913;28;20185;-33
2023/09/04 05:17:19;;;;;;;6.93;2.97;;;14.70;99.90;;;;;;5012129;28;20266;-32
2023/09/04 05:19:46;;;;;;;3.87;2.90;;;14.70;99.90;;;;;;5023092;28;20210;-33
2023/09/04 05:22:12;;;;;;;7.97;2.93;;;14.70;99.90;;;;;;5015286;28;20183;-32
2023/09/04 05:24:38;;;;;;;7.40;2.67;;;14.60;99.90;;;;;;5014424;28;20206;-33
2023/09/04 05:27:05;;;;;;;3.93;2.87;;;14.60;99.90;;;;;;5007001;28;20250;-32
2023/09/04 05:29:31;;;;;;;4.93;2.90;;;14.60;99.90;;;;;;5003727;28;20190;-32
2023/09/04 05:31:57;;;;;;;6.50;2.90;;;14.60;99.90;;;;;;5019635;28;20183;-32
2023/09/04 05:34:23;;;;;;;5.10;2.90;;;14.60;99.90;;;;;;5008997;28;20291;-33
2023/09/04 05:36:49;;;;;;;4.77;2.80;;;14.60;99.90;;;;;;5021945;28;20298;-33
2023/09/04 05:39:15;;;;;;;6.53;3.20;;;14.60;99.90;;;;;;5014399;28;20187;-34
2023/09/04 05:41:40;;;;;;;3.23;2.83;;;14.70;99.90;;;;;;5022630;28;20214;-33
2023/09/04 05:44:06;;;;;;;5.80;3.00;;;14.70;99.90;;;;;;5029310;28;20240;-33
2023/09/04 05:46:32;;;;;;;5.70;3.17;;;14.80;99.90;;;;;;5002243;28;20226;-32
2023/09/04 05:48:58;;;;;;;5.73;3.10;;;14.80;99.90;;;;;;5002020;28;20178;-33
2023/09/04 05:51:24;;;;;;;6.47;3.00;;;14.80;99.90;;;;;;5020531;28;20221;-33
2023/09/04 05:53:50;;;;;;;5.87;3.10;;;14.80;99.90;;;;;;5000916;28;20186;-33
2023/09/04 05:56:17;;;;;;;4.23;3.17;;;14.80;99.90;;;;;;5013195;28;20257;-33
2023/09/04 05:58:51;;;;;;;6.73;3.80;;;14.80;99.90;;;;;;5001982;28;20210;-33
2023/09/04 06:01:18;;;;;;;5.43;3.53;;;14.70;99.90;;;;;;5009109;28;20178;-33
2023/09/04 06:03:45;;;;;;;3.87;3.30;;;14.70;99.90;;;;;;5025539;28;20187;-34
2023/09/04 06:06:11;;;;;;;4.33;3.20;;;14.70;99.90;;;;;;5026666;28;20211;-33
2023/09/04 06:08:37;;;;;;;4.70;3.50;;;14.80;99.90;;;;;;5013928;28;20174;-35
2023/09/04 06:11:04;;;;;;;3.97;3.67;;;14.80;99.90;;;;;;5029883;28;20195;-34
2023/09/04 06:13:31;;;;;;;3.57;3.07;;;14.90;99.90;;;;;;5002978;28;20192;-34
2023/09/04 06:15:59;;;;;;;3.40;3.10;;;15.00;99.90;;;;;;5010900;28;20233;-33
2023/09/04 06:18:27;;;;;;;3.87;3.17;;;15.00;99.90;;;;;;5003533;28;20201;-33
2023/09/04 06:20:53;;;;;;;4.63;3.77;;;14.90;99.90;;;;;;5005231;28;20209;-33
2023/09/04 06:23:19;;;;;;;4.10;3.60;;;14.90;99.90;;;;;;5003208;28;20654;-33
2023/09/04 06:25:46;;;;;;;4.33;3.70;;;14.90;99.90;;;;;;5019879;28;20210;-33
2023/09/04 06:28:13;;;;;;;3.87;3.43;;;15.00;99.90;;;;;;5022160;28;20197;-33
2023/09/04 06:30:39;;;;;;;5.10;4.00;;;14.90;99.90;;;;;;5013981;28;20182;-33
2023/09/04 06:33:05;;;;;;;4.00;3.53;;;15.00;99.90;;;;;;5020763;28;20201;-33
2023/09/04 06:35:31;;;;;;;3.93;3.43;;;15.00;99.90;;;;;;5005637;28;20218;-33
2023/09/04 06:37:58;;;;;;;4.00;3.60;;;15.10;99.90;;;;;;5005199;28;20201;-33
2023/09/04 06:40:24;;;;;;;5.47;4.17;;;15.20;99.90;;;;;;5015350;28;20179;-33
2023/09/04 06:42:53;;;;;;;4.50;4.07;;;15.40;99.90;;;;;;5023292;28;20320;-33
2023/09/04 06:45:19;;;;;;;4.60;4.20;;;15.50;99.90;;;;;;5004131;28;20210;-34
2023/09/04 06:47:45;;;;;;;4.20;3.80;;;15.60;99.90;;;;;;5011164;28;20209;-33
2023/09/04 06:50:11;;;;;;;4.53;4.10;;;15.70;99.90;;;;;;5010233;28;20179;-33
2023/09/04 06:52:37;;;;;;;4.33;3.87;;;15.80;99.90;;;;;;5018256;28;20348;-33
2023/09/04 06:55:04;;;;;;;4.73;3.70;;;16.00;99.90;;;;;;5007694;28;20186;-33
2023/09/04 06:57:30;;;;;;;4.20;3.80;;;16.10;99.90;;;;;;5021647;28;20211;-34
2023/09/04 06:59:57;;;;;;;4.80;3.83;;;16.20;99.90;;;;;;5029606;28;20221;-34
2023/09/04 07:02:23;;;;;;;3.87;3.40;;;16.30;99.90;;;;;;5000003;28;20183;-34
2023/09/04 07:04:49;;;;;;;3.83;3.53;;;16.40;99.90;;;;;;4999427;28;20228;-34
2023/09/04 07:07:15;;;;;;;3.50;3.20;;;16.60;99.90;;;;;;5020635;28;20217;-34
2023/09/04 07:09:41;;;;;;;3.58;3.28;;;16.70;99.90;;;;;;5005146;28;20212;-35
2023/09/04 07:12:11;;;;;;;3.70;3.33;;;16.70;99.90;;;;;;5010012;28;20178;-35
2023/09/04 07:14:38;;;;;;;3.60;3.30;;;16.80;99.90;;;;;;5005329;28;20182;-34
2023/09/04 07:17:03;;;;;;;3.80;3.50;;;16.90;99.90;;;;;;5014334;28;20218;-35
2023/09/04 07:19:29;;;;;;;3.47;3.13;;;17.00;99.90;;;;;;5029607;28;20178;-34
2023/09/04 07:21:55;;;;;;;5.40;3.13;;;17.10;99.90;;;;;;5012647;28;20186;-34
2023/09/04 07:24:21;;;;;;;3.40;3.10;;;17.20;99.90;;;;;;5002210;28;20237;-33
2023/09/04 07:26:47;;;;;;;3.58;3.17;;;17.20;99.90;;;;;;5016220;28;20222;-34
2023/09/04 07:29:12;;;;;;;3.22;2.92;;;17.30;99.90;;;;;;5025507;28;20179;-34
2023/09/04 07:31:38;;;;;;;4.13;3.20;;;17.40;99.90;;;;;;5018968;28;20175;-35
2023/09/04 07:34:04;;;;;;;4.05;3.20;;;17.50;99.90;;;;;;5009174;28;20221;-34
2023/09/04 07:36:30;;;;;;;4.88;3.28;;;17.50;99.90;;;;;;5006214;28;20269;-34
2023/09/04 07:38:56;;;;;;;3.72;2.95;;;17.60;99.90;;;;;;5005263;28;20175;-34
2023/09/04 07:41:21;;;;;;;4.30;3.20;;;17.70;99.90;;;;;;5015037;28;20179;-34
2023/09/04 07:43:49;;;;;;;3.42;3.13;;;17.80;99.90;;;;;;5020250;28;20191;-34
2023/09/04 07:46:14;;;;;;;3.63;3.33;;;18.00;99.90;;;;;;5029070;28;20233;-33
2023/09/04 07:48:40;;;;;;;3.88;3.50;;;18.10;99.90;;;;;;5021085;28;20210;-34
2023/09/04 07:51:09;;;;;;;6.20;3.20;;;18.20;99.90;;;;;;5007276;28;20255;-36
2023/09/04 07:53:35;;;;;;;3.60;3.30;;;18.30;99.90;;;;;;5008678;28;20174;-38
2023/09/04 07:56:01;;;;;;;4.50;3.42;;;18.40;99.90;;;;;;5009105;28;20210;-35
2023/09/04 07:58:27;;;;;;;3.50;3.13;;;18.60;99.90;;;;;;5028800;28;20215;-37
2023/09/04 08:00:53;;;;;;;3.70;3.38;;;18.70;99.90;;;;;;5019693;28;20210;-35
2023/09/04 08:03:19;;;;;;;4.20;3.45;;;18.80;99.90;;;;;;5007501;28;20198;-35
2023/09/04 08:05:45;;;;;;;4.18;3.03;;;18.90;99.90;;;;;;5013039;28;20238;-35
2023/09/04 08:08:11;;;;;;;3.40;3.10;;;19.10;99.90;;;;;;5012662;28;20202;-34
2023/09/04 08:10:44;;;;;;;4.03;3.17;;;19.20;99.90;;;;;;5019714;28;20183;-37
2023/09/04 08:13:14;;;;;;;3.70;3.22;;;19.40;99.90;;;;;;5012402;28;20194;-34
2023/09/04 08:15:41;;;;;;;3.58;3.05;;;19.50;99.90;;;;;;5016242;28;20185;-34
2023/09/04 08:18:07;;;;;;;4.30;3.90;;;19.70;99.90;;;;;;5022519;28;20203;-36
2023/09/04 08:20:35;;;;;;;4.70;3.58;;;19.80;99.90;;;;;;5032531;28;20191;-36
2023/09/04 08:23:02;;;;;;;4.22;3.60;;;19.90;99.90;;;;;;5017765;28;20183;-34
2023/09/04 08:25:28;;;;;;;4.05;3.65;;;20.10;99.90;;;;;;5003892;28;20238;-35
2023/09/04 08:27:54;;;;;;;3.67;3.38;;;20.30;99.90;;;;;;5004436;28;20238;-36
2023/09/04 08:30:20;;;;;;;3.70;3.40;;;20.40;99.90;;;;;;5005209;28;20210;-36
2023/09/04 08:32:46;;;;;;;3.20;2.92;;;20.60;99.90;;;;;;5018779;28;20243;-36
2023/09/04 08:35:12;;;;;;;4.57;3.50;;;20.80;99.90;;;;;;5016394;28;20243;-34
2023/09/04 08:37:39;;;;;;;3.53;2.90;;;21.00;99.90;;;;;;5011951;28;20215;-34
2023/09/04 08:40:05;;;;;;;4.07;3.67;;;21.20;99.90;;;;;;5010251;28;20324;-35
2023/09/04 08:42:32;;;;;;;4.40;3.55;;;21.30;99.90;;;;;;5012654;28;20191;-36
2023/09/04 08:44:58;;;;;;;3.70;3.40;;;21.50;99.90;;;;;;5004026;28;20295;-36
2023/09/04 08:47:25;;;;;;;3.83;3.53;;;21.70;99.90;;;;;;5004002;28;20203;-34
2023/09/04 08:49:53;;;;;;;4.03;3.22;;;21.90;99.90;;;;;;5017807;28;20194;-35
2023/09/04 08:52:19;;;;;;;3.55;3.17;;;22.10;99.90;;;;;;5012047;28;20194;-35
2023/09/04 08:54:46;;;;;;;4.43;3.40;;;22.20;99.90;;;;;;5011889;28;20179;-36
2023/09/04 08:57:14;;;;;;;4.32;3.13;;;22.30;99.90;;;;;;5010331;28;20202;-35
2023/09/04 08:59:40;;;;;;;3.92;3.58;;;22.50;99.90;;;;;;5011485;28;20194;-34
2023/09/04 09:02:14;;;;;;;4.50;3.30;;;22.70;99.90;;;;;;5015657;28;20183;-35
2023/09/04 09:04:41;;;;;;;3.22;2.92;;;22.90;99.90;;;;;;5023481;28;20278;-33
2023/09/04 09:07:08;;;;;;;3.90;3.58;;;23.00;99.90;;;;;;5015560;28;20222;-35
2023/09/04 09:09:38;;;;;;;3.42;3.13;;;23.20;99.90;;;;;;5014021;28;20189;-38
2023/09/04 09:12:05;;;;;;;3.55;3.25;;;23.30;99.90;;;;;;5011468;28;20275;-34
2023/09/04 09:14:32;;;;;;;3.50;3.20;;;23.40;99.90;;;;;;5012237;28;20190;-34
2023/09/04 09:17:06;;;;;;;3.03;2.72;;;23.50;99.90;;;;;;5014154;28;20203;-34
2023/09/04 09:19:33;;;;;;;3.60;3.30;;;23.70;99.90;;;;;;5011768;28;20183;-35
2023/09/04 09:22:13;;;;;;;3.50;3.22;;;23.80;99.90;;;;;;5008734;28;20229;-35
2023/09/04 09:24:59;;;;;;;3.40;3.10;;;23.80;99.90;;;;;;5014634;28;20205;-35
2023/09/04 09:27:26;;;;;;;3.35;3.05;;;23.90;99.90;;;;;;5013394;28;20225;-34
2023/09/04 09:29:57;;;;;;;3.30;3.00;;;24.00;99.90;;;;;;5007077;28;20270;-35
2023/09/04 09:32:26;;;;;;;3.45;3.15;;;24.10;99.90;;;;;;5014250;28;20187;-35
2023/09/04 09:34:53;;;;;;;3.22;3.00;;;24.10;99.90;;;;;;5004889;28;20226;-35
2023/09/04 09:37:23;;;;;;;3.30;3.00;;;24.30;99.90;;;;;;5010413;28;20210;-34
2023/09/04 09:39:49;;;;;;;3.13;2.83;;;24.40;99.90;;;;;;5002553;28;20233;-34
2023/09/04 09:42:15;;;;;;;3.30;3.00;;;24.50;99.90;;;;;;5014626;28;20186;-36
2023/09/04 09:44:41;;;;;;;3.35;3.13;;;24.50;99.90;;;;;;5016224;28;20246;-35
2023/09/04 09:47:09;;;;;;;3.35;3.05;;;24.60;99.90;;;;;;5022400;28;20259;-35
2023/09/04 09:49:36;;;;;;;3.67;3.08;;;24.70;99.90;;;;;;5019857;28;20178;-35
2023/09/04 09:52:06;;;;;;;5.13;3.20;;;24.90;99.90;;;;;;5002693;28;20265;-34
2023/09/04 09:54:35;;;;;;;3.20;2.92;;;24.70;99.90;;;;;;5010062;28;20269;-34
2023/09/04 09:57:03;;;;;;;5.95;3.67;;;24.90;99.90;;;;;;5019492;28;20298;-35
2023/09/04 09:59:32;;;;;;;3.08;2.88;;;25.00;99.90;;;;;;5009488;28;20225;-38
2023/09/04 10:02:00;;;;;;;2.90;2.70;;;25.10;99.90;;;;;;4999143;28;20186;-34
2023/09/04 10:04:27;;;;;;;3.20;2.90;;;25.20;99.90;;;;;;5021270;28;20203;-34
2023/09/04 10:06:55;;;;;;;3.65;3.15;;;25.20;99.90;;;;;;5003849;28;20195;-35
2023/09/04 10:09:23;;;;;;;3.47;3.13;;;25.40;99.90;;;;;;5009640;28;20179;-35
2023/09/04 10:12:03;;;;;;;3.22;2.90;;;25.40;99.90;;;;;;5010195;28;20179;-34
2023/09/04 10:14:39;;;;;;;4.75;3.30;;;25.40;99.90;;;;;;5019599;28;20209;-34
2023/09/04 10:17:08;;;;;;;3.50;3.20;;;25.60;99.90;;;;;;5017150;28;20684;-34
2023/09/04 10:19:39;;;;;;;3.10;2.80;;;25.80;99.90;;;;;;5011643;28;20187;-35
2023/09/04 10:22:20;;;;;;;5.50;3.00;;;25.90;99.90;;;;;;5002480;28;20229;-36
2023/09/04 10:24:57;;;;;;;3.20;2.90;;;25.90;99.90;;;;;;4994948;28;20345;-35
2023/09/04 10:27:30;;;;;;;3.30;3.00;;;26.00;99.90;;;;;;5004658;23;20258;-30
2023/09/04 10:30:05;;;;;;;3.30;3.00;;;26.10;99.90;;;;;;4987109;28;20337;-30
2023/09/04 10:32:31;;;;;;;4.80;3.13;;;26.20;99.90;;;;;;5026931;28;20182;-31
2023/09/04 10:34:57;;;;;;;3.20;2.90;;;26.30;99.90;;;;;;5010015;28;20187;-30
2023/09/04 10:37:26;;;;;;;3.15;2.95;;;26.50;99.90;;;;;;4977110;28;20200;-30
2023/09/04 10:39:54;;;;;;;3.10;2.90;;;26.50;99.90;;;;;;4992909;28;20241;-31
2023/09/04 10:42:23;;;;;;;3.25;2.95;;;26.60;99.90;;;;;;4997082;28;20179;-30
2023/09/04 10:44:53;;;;;;;2.80;2.58;;;26.60;99.90;;;;;;5009953;28;20230;-31
2023/09/04 10:47:20;;;;;;;4.82;2.90;;;26.80;99.90;;;;;;4997287;28;20207;-30
2023/09/04 10:49:47;;;;;;;3.00;2.80;;;26.80;99.90;;;;;;4993088;28;20280;-30
2023/09/04 10:52:13;;;;;;;2.85;2.65;;;26.90;99.90;;;;;;4993696;28;20179;-30
2023/09/04 10:54:40;;;;;;;2.85;2.65;;;27.10;99.90;;;;;;4976688;28;20286;-31
2023/09/04 10:57:13;;;;;;;3.00;2.72;;;27.20;99.90;;;;;;5012493;28;20199;-30
2023/09/04 11:00:02;;;;;;;3.30;3.00;;;27.00;99.90;;;;;;5009731;28;20219;-30
2023/09/04 11:02:33;;;;;;;3.35;3.05;;;27.10;99.90;;;;;;4988155;28;20223;-30
2023/09/04 11:05:01;;;;;;;2.80;2.60;;;27.20;99.90;;;;;;4992623;28;20264;-30
2023/09/04 11:07:31;;;;;;;3.17;2.90;;;27.40;99.90;;;;;;4974195;28;20207;-30
2023/09/04 11:10:29;;;;;;;3.25;2.95;;;27.50;99.90;;;;;;4980189;28;20179;-31
2023/09/04 11:12:55;;;;;;;3.75;2.97;;;27.70;99.90;;;;;;4970179;28;20262;-30
2023/09/04 11:15:22;;;;;;;3.53;3.22;;;27.90;99.90;;;;;;4975790;28;20187;-30
2023/09/04 11:17:51;;;;;;;3.25;2.78;;;27.90;99.90;;;;;;5007424;28;20222;-30
2023/09/04 11:20:22;;;;;;;2.90;2.70;;;28.10;99.90;;;;;;4993073;28;20661;-31
2023/09/04 11:22:48;;;;;;;3.58;2.90;;;28.20;99.90;;;;;;4974017;28;20271;-30
2023/09/04 11:25:17;;;;;;;3.17;2.88;;;28.30;99.90;;;;;;4982677;28;20211;-30
2023/09/04 11:27:45;;;;;;;2.90;2.70;;;28.40;99.90;;;;;;4984686;28;20219;-30
2023/09/04 11:30:11;;;;;;;3.00;2.80;;;28.50;99.90;;;;;;5009319;28;20207;-30
2023/09/04 11:32:38;;;;;;;3.50;3.00;;;28.60;99.90;;;;;;5009286;28;20190;-30
2023/09/04 11:35:09;;;;;;;3.08;2.78;;;28.60;99.90;;;;;;5019039;28;20192;-30
2023/09/04 11:37:35;;;;;;;2.72;2.53;;;28.60;99.90;;;;;;4975288;28;20242;-30
2023/09/04 11:40:01;;;;;;;2.97;2.40;;;28.70;99.90;;;;;;4992671;28;20199;-30
2023/09/04 11:42:27;;;;;;;2.83;2.60;;;28.70;99.90;;;;;;4976728;28;20323;-30
2023/09/04 11:44:54;;;;;;;2.92;2.67;;;28.80;99.90;;;;;;4993089;28;20215;-30
2023/09/04 11:47:22;;;;;;;3.83;2.80;;;28.90;99.90;;;;;;4973801;28;20282;-30
2023/09/04 11:49:48;;;;;;;3.67;2.78;;;29.00;99.90;;;;;;4984210;28;20184;-30
2023/09/04 11:52:16;;;;;;;2.63;2.40;;;29.10;99.90;;;;;;4978390;28;20192;-30
2023/09/04 11:54:43;;;;;;;3.08;2.78;;;29.20;99.90;;;;;;4959592;28;20321;-30
2023/09/04 11:57:10;;;;;;;2.88;2.55;;;29.20;99.90;;;;;;4972735;28;20215;-31
2023/09/04 11:59:37;;;;;;;2.85;2.58;;;29.30;99.90;;;;;;4990936;28;20230;-30
2023/09/04 12:02:04;;;;;;;2.70;2.40;;;29.40;99.90;;;;;;4973371;28;20279;-30
2023/09/04 12:04:33;;;;;;;3.72;2.60;;;29.50;99.90;;;;;;4980209;28;20211;-30
2023/09/04 12:07:02;;;;;;;2.85;2.65;;;29.40;99.90;;;;;;4973635;28;20204;-30
2023/09/04 12:09:28;;;;;;;2.47;2.28;;;29.50;99.90;;;;;;4982847;28;20266;-31
2023/09/04 12:11:54;;;;;;;2.78;2.58;;;29.50;99.90;;;;;;4995082;28;20217;-31
2023/09/04 12:14:20;;;;;;;2.88;2.58;;;29.60;99.90;;;;;;4977886;28;20188;-31
2023/09/04 12:16:47;;;;;;;2.63;2.40;;;29.50;99.90;;;;;;4979312;28;20218;-30
2023/09/04 12:19:15;;;;;;;2.75;2.55;;;29.70;99.90;;;;;;4983137;28;20187;-31
2023/09/04 12:21:41;;;;;;;2.40;2.20;;;29.80;99.90;;;;;;5012791;28;20187;-31
2023/09/04 12:24:17;;;;;;;3.00;2.30;;;29.80;99.90;;;;;;5001934;28;20183;-31
2023/09/04 12:26:46;;;;;;;2.60;2.40;;;29.80;99.90;;;;;;4980330;28;20221;-32
2023/09/04 12:29:12;;;;;;;2.55;2.35;;;29.90;99.90;;;;;;5012938;28;20220;-31
2023/09/04 12:31:38;;;;;;;2.63;2.42;;;30.00;99.90;;;;;;4996031;28;20192;-31
2023/09/04 12:34:04;;;;;;;2.50;2.30;;;30.10;99.90;;;;;;4986230;28;20179;-31
2023/09/04 12:36:34;;;;;;;2.78;2.50;;;30.20;99.90;;;;;;5001142;28;20277;-31
2023/09/04 12:39:00;;;;;;;2.50;2.30;;;30.30;99.90;;;;;;5012281;28;20238;-32
2023/09/04 12:41:26;;;;;;;3.35;2.47;;;30.30;99.90;;;;;;4995571;28;20638;-31
2023/09/04 12:43:52;;;;;;;2.47;2.28;;;30.50;99.90;;;;;;4993873;28;20188;-30
2023/09/04 12:46:18;;;;;;;2.58;2.38;;;30.50;99.90;;;;;;4976049;28;20208;-31